createdAt,value
2023-04-12T00:00:12.092Z,3.65
2023-04-12T00:02:42.540Z,3.73
2023-04-12T00:05:14.228Z,3.76
2023-04-12T00:07:47.082Z,3.81
2023-04-12T00:10:15.689Z,3.82
2023-04-12T00:12:43.907Z,3.78
2023-04-12T00:15:12.799Z,3.78
2023-04-12T00:17:41.174Z,3.80
2023-04-12T00:20:12.952Z,3.78
2023-04-12T00:22:42.894Z,3.79
2023-04-12T00:25:11.719Z,3.79
2023-04-12T00:27:40.636Z,3.81
2023-04-12T00:30:09.912Z,3.86
2023-04-12T00:32:38.012Z,3.89
2023-04-12T00:35:07.158Z,3.91
2023-04-12T00:37:38.766Z,3.93
2023-04-12T00:40:11.031Z,3.94
2023-04-12T00:42:39.279Z,3.95
2023-04-12T00:45:08.563Z,3.95
2023-04-12T00:47:38.003Z,4.01
2023-04-12T00:50:07.234Z,4.02
2023-04-12T00:52:35.758Z,3.97
2023-04-12T00:55:05.408Z,4.04
2023-04-12T00:57:37.952Z,4.06
2023-04-12T01:00:09.072Z,4.02
2023-04-12T01:02:39.486Z,4.01
2023-04-12T01:05:14.981Z,4.00
2023-04-12T01:07:54.449Z,4.06
2023-04-12T01:10:34.955Z,4.10
2023-04-12T01:13:12.879Z,4.11
2023-04-12T01:15:47.499Z,4.07
2023-04-12T01:18:21.279Z,4.08
2023-04-12T01:20:57.899Z,4.07
2023-04-12T01:24:03.075Z,4.05
2023-04-12T01:26:40.926Z,4.14
2023-04-12T01:29:13.496Z,4.09
2023-04-12T01:31:43.367Z,4.09
2023-04-12T01:34:13.577Z,4.13
2023-04-12T01:36:44.109Z,4.12
2023-04-12T01:39:12.529Z,4.20
2023-04-12T01:41:45.377Z,4.18
2023-04-12T01:44:16.536Z,4.16
2023-04-12T01:46:46.962Z,4.11
2023-04-12T01:49:15.697Z,4.11
2023-04-12T01:51:52.531Z,4.09
2023-04-12T01:54:24.469Z,4.20
2023-04-12T01:56:59.068Z,4.27
2023-04-12T01:59:33.808Z,4.24
2023-04-12T02:02:03.647Z,4.40
2023-04-12T02:04:32.895Z,4.39
2023-04-12T02:07:01.345Z,4.28
2023-04-12T02:09:29.592Z,4.39
2023-04-12T02:11:58.034Z,4.38
2023-04-12T02:14:27.298Z,4.45
2023-04-12T02:16:58.346Z,4.43
2023-04-12T02:19:26.613Z,4.35
2023-04-12T02:21:54.854Z,4.41
2023-04-12T02:24:23.019Z,4.41
2023-04-12T02:26:51.218Z,4.38
2023-04-12T02:29:19.368Z,4.34
2023-04-12T02:31:48.423Z,4.38
2023-04-12T02:34:19.466Z,4.42
2023-04-12T02:36:48.544Z,4.37
2023-04-12T02:39:18.918Z,4.42
2023-04-12T02:41:47.235Z,4.47
2023-04-12T02:44:15.503Z,4.53
2023-04-12T02:46:43.576Z,4.55
2023-04-12T02:49:11.899Z,4.59
2023-04-12T02:51:41.898Z,4.59
2023-04-12T02:54:10.450Z,4.62
2023-04-12T02:56:38.687Z,4.62
2023-04-12T02:59:06.961Z,4.64
2023-04-12T03:01:35.235Z,4.71
2023-04-12T03:04:03.522Z,4.75
2023-04-12T03:06:32.162Z,4.72
2023-04-12T03:09:01.597Z,4.65
2023-04-12T03:11:29.868Z,4.60
2023-04-12T03:13:58.238Z,4.45
2023-04-12T03:16:30.107Z,4.38
2023-04-12T03:18:59.525Z,4.29
2023-04-12T03:21:28.431Z,4.32
2023-04-12T03:23:56.921Z,4.30
2023-04-12T03:26:27.165Z,4.28
2023-04-12T03:29:05.164Z,4.27
2023-04-12T03:31:33.369Z,4.32
2023-04-12T03:34:01.917Z,4.34
2023-04-12T03:36:31.596Z,4.36
2023-04-12T03:39:00.055Z,4.35
2023-04-12T03:41:30.258Z,4.40
2023-04-12T03:43:58.538Z,4.41
2023-04-12T03:46:26.904Z,4.44
2023-04-12T03:48:56.081Z,4.40
2023-04-12T03:51:27.044Z,4.45
2023-04-12T03:53:55.770Z,4.47
2023-04-12T03:56:24.848Z,4.48
2023-04-12T03:58:54.675Z,4.51
2023-04-12T04:01:23.760Z,4.55
2023-04-12T04:03:52.611Z,4.54
2023-04-12T04:06:21.924Z,4.58
2023-04-12T04:08:50.329Z,4.51
2023-04-12T04:11:18.775Z,4.65
2023-04-12T04:13:48.025Z,4.56
2023-04-12T04:16:18.247Z,4.70
2023-04-12T04:18:46.409Z,4.70
2023-04-12T04:21:15.569Z,4.74
2023-04-12T04:23:48.120Z,4.81
2023-04-12T04:26:17.261Z,4.88
2023-04-12T04:28:46.506Z,4.90
2023-04-12T04:31:17.780Z,4.96
2023-04-12T04:33:48.021Z,4.97
2023-04-12T04:36:16.731Z,4.94
2023-04-12T04:38:45.482Z,4.99
2023-04-12T04:41:13.960Z,5.07
2023-04-12T04:43:42.975Z,5.08
2023-04-12T04:46:12.086Z,5.10
2023-04-12T04:48:41.063Z,5.06
2023-04-12T04:51:10.668Z,5.10
2023-04-12T04:53:38.843Z,5.16
2023-04-12T04:56:08.076Z,5.17
2023-04-12T04:58:36.640Z,5.11
2023-04-12T05:01:05.571Z,5.15
2023-04-12T05:03:34.576Z,5.15
2023-04-12T05:06:03.515Z,5.18
2023-04-12T05:08:33.210Z,5.22
2023-04-12T05:11:01.415Z,5.27
2023-04-12T05:13:29.742Z,5.32
2023-04-12T05:15:57.933Z,5.34
2023-04-12T05:18:26.405Z,5.35
2023-04-12T05:20:55.008Z,5.39
2023-04-12T05:23:23.495Z,5.39
2023-04-12T05:25:53.508Z,5.40
2023-04-12T05:28:21.789Z,5.41
2023-04-12T05:30:50.160Z,5.53
2023-04-12T05:33:18.401Z,5.49
2023-04-12T05:35:46.752Z,5.58
2023-04-12T05:38:15.161Z,5.63
2023-04-12T05:40:44.372Z,5.65
2023-04-12T05:43:14.650Z,5.68
2023-04-12T05:45:43.207Z,5.73
2023-04-12T05:48:12.001Z,5.73
2023-04-12T05:50:40.527Z,5.82
2023-04-12T05:53:14.836Z,5.84
2023-04-12T05:55:43.817Z,5.83
2023-04-12T05:58:13.853Z,5.88
2023-04-12T06:00:47.057Z,5.97
2023-04-12T06:03:15.751Z,5.99
2023-04-12T06:05:45.122Z,6.04
2023-04-12T06:08:15.038Z,5.97
2023-04-12T06:10:43.737Z,5.80
2023-04-12T06:13:14.363Z,5.69
2023-04-12T06:15:46.269Z,5.68
2023-04-12T06:18:15.710Z,5.65
2023-04-12T06:20:44.091Z,5.60
2023-04-12T06:23:12.648Z,5.60
2023-04-12T06:25:40.861Z,5.66
2023-04-12T06:28:09.577Z,5.64
2023-04-12T06:30:39.420Z,5.69
2023-04-12T06:33:08.616Z,5.75
2023-04-12T06:35:37.097Z,5.78
2023-04-12T06:38:06.090Z,5.82
2023-04-12T06:40:34.580Z,5.86
2023-04-12T06:43:02.855Z,5.92
2023-04-12T06:45:31.401Z,5.96
2023-04-12T06:48:01.205Z,5.90
2023-04-12T06:50:31.258Z,6.00
2023-04-12T06:52:59.629Z,6.08
2023-04-12T06:55:29.436Z,6.07
2023-04-12T06:57:57.943Z,6.08
2023-04-12T07:00:26.654Z,6.13
2023-04-12T07:02:55.355Z,6.15
2023-04-12T07:05:25.777Z,6.10
2023-04-12T07:07:54.293Z,6.15
2023-04-12T07:10:22.519Z,6.16
2023-04-12T07:12:52.136Z,6.08
2023-04-12T07:15:20.621Z,6.22
2023-04-12T07:17:49.108Z,6.23
2023-04-12T07:20:17.606Z,6.19
2023-04-12T07:22:47.458Z,6.30
2023-04-12T07:25:15.993Z,6.28
2023-04-12T07:27:44.405Z,6.17
2023-04-12T07:30:13.918Z,6.21
2023-04-12T07:32:44.593Z,6.28
2023-04-12T07:35:13.060Z,6.28
2023-04-12T07:37:41.955Z,6.33
2023-04-12T07:40:12.540Z,6.43
2023-04-12T07:42:40.748Z,6.50
2023-04-12T07:45:10.018Z,6.51
2023-04-12T07:47:38.565Z,6.64
2023-04-12T07:50:08.097Z,6.77
2023-04-12T07:52:36.603Z,6.83
2023-04-12T07:55:05.564Z,6.91
2023-04-12T07:57:35.653Z,6.80
2023-04-12T08:00:06.050Z,6.84
2023-04-12T08:02:34.585Z,6.72
2023-04-12T08:05:03.088Z,6.83
2023-04-12T08:07:31.630Z,6.90
2023-04-12T08:09:59.785Z,6.97
2023-04-12T08:12:27.991Z,7.07
2023-04-12T08:14:57.496Z,7.16
2023-04-12T08:17:28.798Z,7.40
2023-04-12T08:19:57.487Z,7.46
2023-04-12T08:22:26.046Z,7.74
2023-04-12T08:24:54.472Z,7.76
2023-04-12T08:27:23.443Z,7.84
2023-04-12T08:29:52.107Z,8.00
2023-04-12T08:34:50.084Z,7.99
2023-04-12T08:37:18.893Z,8.06
2023-04-12T08:39:47.075Z,8.19
2023-04-12T08:42:16.366Z,7.95
2023-04-12T08:44:45.761Z,8.02
2023-04-12T08:47:14.669Z,7.93
2023-04-12T08:49:45.417Z,8.02
2023-04-12T08:52:14.313Z,7.99
2023-04-12T08:54:42.881Z,7.88
2023-04-12T08:57:11.492Z,7.92
2023-04-12T08:59:43.538Z,7.70
2023-04-12T09:02:12.033Z,7.84
2023-04-12T09:04:50.482Z,7.64
2023-04-12T09:07:19.184Z,7.64
2023-04-12T09:09:48.615Z,7.52
2023-04-12T09:12:17.852Z,7.66
2023-04-12T09:14:46.156Z,7.57
2023-04-12T09:17:28.217Z,7.59
2023-04-12T09:19:58.136Z,7.59
2023-04-12T09:22:37.425Z,7.44
2023-04-12T09:25:06.543Z,7.48
2023-04-12T09:27:47.564Z,7.24
2023-04-12T09:30:18.295Z,7.15
2023-04-12T09:32:46.870Z,7.14
2023-04-12T09:35:17.518Z,7.06
2023-04-12T09:37:45.933Z,7.11
2023-04-12T09:40:14.568Z,7.26
2023-04-12T09:42:53.692Z,7.23
2023-04-12T09:45:24.485Z,7.16
2023-04-12T09:47:53.961Z,6.99
2023-04-12T09:50:24.684Z,6.97
2023-04-12T09:52:54.287Z,7.22
2023-04-12T09:55:24.346Z,7.15
2023-04-12T09:57:54.264Z,7.19
2023-04-12T10:00:26.939Z,7.34
2023-04-12T10:02:57.944Z,7.32
2023-04-12T10:05:28.453Z,7.26
2023-04-12T10:07:57.505Z,7.26
2023-04-12T10:10:26.619Z,7.32
2023-04-12T10:12:55.237Z,7.44
2023-04-12T10:15:23.675Z,7.60
2023-04-12T10:17:54.054Z,7.61
2023-04-12T10:20:28.232Z,7.64
2023-04-12T10:23:00.019Z,8.02
2023-04-12T10:25:31.169Z,8.42
2023-04-12T10:28:15.557Z,8.23
2023-04-12T10:30:44.102Z,8.37
2023-04-12T10:33:18.409Z,8.21
2023-04-12T10:35:58.261Z,7.86
2023-04-12T10:38:35.279Z,7.86
2023-04-12T10:41:14.932Z,7.97
2023-04-12T10:43:44.210Z,7.84
2023-04-12T10:46:50.520Z,8.23
2023-04-12T10:49:19.523Z,8.64
2023-04-12T10:52:18.523Z,8.80
2023-04-12T10:54:48.870Z,9.04
2023-04-12T10:57:49.847Z,8.76
2023-04-12T11:00:18.859Z,9.17
2023-04-12T11:03:07.631Z,9.07
2023-04-12T11:05:58.286Z,8.83
2023-04-12T11:08:27.916Z,8.76
2023-04-12T11:11:03.800Z,8.73
2023-04-12T11:13:37.373Z,8.69
2023-04-12T11:16:07.861Z,8.93
2023-04-12T11:18:36.847Z,8.91
2023-04-12T11:21:06.344Z,8.68
2023-04-12T11:23:36.418Z,8.57
2023-04-12T11:26:07.466Z,8.52
2023-04-12T11:28:36.066Z,8.43
2023-04-12T11:31:04.553Z,8.54
2023-04-12T11:33:34.435Z,8.45
2023-04-12T11:36:06.038Z,8.37
2023-04-12T11:38:35.875Z,8.32
2023-04-12T11:41:07.305Z,8.40
2023-04-12T11:43:36.191Z,8.41
2023-04-12T11:46:04.851Z,8.48
2023-04-12T11:48:34.108Z,8.67
2023-04-12T11:51:10.937Z,8.69
2023-04-12T11:53:40.216Z,8.82
2023-04-12T11:56:12.159Z,8.90
2023-04-12T11:58:40.811Z,9.00
2023-04-12T12:01:09.277Z,9.07
2023-04-12T12:03:38.252Z,9.17
2023-04-12T12:06:08.585Z,9.32
2023-04-12T12:08:39.695Z,9.37
2023-04-12T12:11:10.660Z,9.12
2023-04-12T12:13:50.037Z,9.14
2023-04-12T12:16:19.191Z,9.09
2023-04-12T12:18:52.377Z,9.04
2023-04-12T12:21:21.796Z,9.07
2023-04-12T12:23:51.129Z,9.18
2023-04-12T12:26:25.463Z,9.15
2023-04-12T12:28:55.092Z,9.10
2023-04-12T12:31:25.103Z,9.16
2023-04-12T12:34:00.151Z,9.22
2023-04-12T12:36:36.224Z,9.06
2023-04-12T12:39:10.694Z,9.17
2023-04-12T12:41:41.543Z,9.37
2023-04-12T12:44:11.363Z,9.36
2023-04-12T12:46:53.597Z,9.41
2023-04-12T12:49:25.638Z,9.29
2023-04-12T12:51:53.923Z,9.27
2023-04-12T12:54:39.284Z,9.21
2023-04-12T12:57:11.067Z,9.28
2023-04-12T12:59:40.250Z,9.36
2023-04-12T13:02:09.172Z,9.34
2023-04-12T13:04:37.957Z,9.41
2023-04-12T13:07:06.158Z,9.39
2023-04-12T13:09:34.654Z,9.48
2023-04-12T13:12:03.444Z,9.60
2023-04-12T13:14:33.088Z,9.74
2023-04-12T13:17:01.644Z,9.75
2023-04-12T13:19:30.238Z,10.00
2023-04-12T13:21:58.422Z,10.21
2023-04-12T13:24:26.880Z,10.42
2023-04-12T13:26:55.033Z,10.50
2023-04-12T13:29:23.651Z,10.43
2023-04-12T13:31:53.329Z,10.27
2023-04-12T13:34:22.231Z,10.12
2023-04-12T13:36:50.873Z,10.09
2023-04-12T13:39:19.138Z,10.20
2023-04-12T13:41:47.298Z,10.47
2023-04-12T13:44:15.773Z,10.56
2023-04-12T13:46:43.968Z,10.97
2023-04-12T13:49:14.030Z,10.93
2023-04-12T13:51:42.243Z,11.24
2023-04-12T13:54:10.658Z,11.12
2023-04-12T13:56:38.857Z,11.17
2023-04-12T13:59:07.563Z,10.94
2023-04-12T14:01:36.426Z,10.79
2023-04-12T14:04:05.395Z,10.85
2023-04-12T14:06:36.437Z,10.78
2023-04-12T14:09:05.815Z,10.90
2023-04-12T14:11:47.329Z,10.87
2023-04-12T14:14:16.957Z,10.88
2023-04-12T14:16:46.287Z,11.06
2023-04-12T14:19:14.763Z,11.11
2023-04-12T14:21:44.588Z,11.02
2023-04-12T14:24:12.922Z,10.77
2023-04-12T14:26:41.234Z,10.94
2023-04-12T14:29:09.739Z,11.23
2023-04-12T14:31:38.198Z,11.27
2023-04-12T14:34:08.937Z,11.28
2023-04-12T14:36:37.450Z,11.28
2023-04-12T14:39:10.443Z,11.29
2023-04-12T14:41:39.428Z,11.08
2023-04-12T14:44:07.737Z,10.84
2023-04-12T14:46:36.382Z,10.94
2023-04-12T14:49:04.668Z,11.02
2023-04-12T14:51:33.549Z,11.21
2023-04-12T14:54:02.118Z,11.69
2023-04-12T14:56:33.315Z,12.04
2023-04-12T14:59:04.462Z,12.27
2023-04-12T15:01:34.067Z,12.58
2023-04-12T15:04:04.123Z,12.57
2023-04-12T15:06:35.522Z,12.22
2023-04-12T15:09:06.463Z,11.95
2023-04-12T15:11:38.348Z,11.73
2023-04-12T15:14:07.849Z,11.84
2023-04-12T15:16:39.154Z,12.00
2023-04-12T15:19:17.555Z,12.09
2023-04-12T15:21:51.129Z,11.91
2023-04-12T15:24:20.095Z,11.88
2023-04-12T15:26:51.116Z,12.05
2023-04-12T15:29:20.290Z,12.13
2023-04-12T15:31:48.927Z,12.14
2023-04-12T15:34:18.143Z,12.25
2023-04-12T15:36:47.005Z,12.26
2023-04-12T15:39:16.352Z,12.34
2023-04-12T15:41:44.864Z,12.39
2023-04-12T15:44:14.557Z,12.36
2023-04-12T15:46:43.641Z,12.29
2023-04-12T15:49:12.973Z,12.19
2023-04-12T15:51:41.830Z,12.24
2023-04-12T15:54:10.365Z,12.35
2023-04-12T15:56:38.923Z,12.51
2023-04-12T15:59:07.915Z,12.55
2023-04-12T16:01:38.192Z,12.43
2023-04-12T16:04:07.241Z,12.38
2023-04-12T16:06:38.362Z,12.33
2023-04-12T16:09:07.701Z,12.53
2023-04-12T16:11:36.502Z,12.31
2023-04-12T16:14:06.234Z,11.94
2023-04-12T16:16:35.675Z,11.75
2023-04-12T16:19:06.426Z,11.70
2023-04-12T16:21:35.067Z,11.65
2023-04-12T16:24:05.278Z,11.66
2023-04-12T16:26:33.865Z,11.58
2023-04-12T16:29:03.838Z,11.60
2023-04-12T16:31:32.410Z,11.53
2023-04-12T16:34:01.264Z,11.41
2023-04-12T16:36:31.902Z,11.36
2023-04-12T16:39:02.030Z,11.39
2023-04-12T16:41:30.533Z,11.35
2023-04-12T16:44:03.503Z,11.30
2023-04-12T16:46:32.087Z,11.23
2023-04-12T16:49:03.859Z,11.06
2023-04-12T16:51:36.746Z,10.92
2023-04-12T16:54:06.325Z,10.75
2023-04-12T16:56:34.342Z,10.55
2023-04-12T16:59:05.368Z,10.37
2023-04-12T17:01:34.610Z,10.45
2023-04-12T17:04:03.800Z,10.41
2023-04-12T17:06:34.256Z,10.34
2023-04-12T17:09:02.345Z,10.33
2023-04-12T17:11:30.340Z,9.94
2023-04-12T17:13:58.983Z,9.25
2023-04-12T17:16:31.207Z,8.50
2023-04-12T17:18:59.865Z,8.44
2023-04-12T17:21:28.163Z,8.66
2023-04-12T17:23:58.363Z,8.81
2023-04-12T17:26:28.179Z,8.97
2023-04-12T17:28:59.992Z,9.14
2023-04-12T17:31:29.595Z,9.24
2023-04-12T17:33:58.990Z,9.38
2023-04-12T17:36:32.184Z,9.39
2023-04-12T17:39:04.861Z,9.32
2023-04-12T17:41:33.560Z,9.25
2023-04-12T17:44:02.659Z,9.23
2023-04-12T17:46:31.024Z,9.25
2023-04-12T17:49:00.236Z,9.29
2023-04-12T17:51:29.488Z,9.15
2023-04-12T17:54:00.709Z,9.24
2023-04-12T17:56:30.821Z,9.14
2023-04-12T17:59:02.458Z,9.06
2023-04-12T18:01:31.784Z,9.04
2023-04-12T18:04:02.953Z,9.04
2023-04-12T18:06:31.869Z,9.00
2023-04-12T18:09:00.831Z,8.97
2023-04-12T18:11:31.394Z,8.93
2023-04-12T18:14:00.458Z,8.88
2023-04-12T18:16:29.607Z,8.90
2023-04-12T18:18:58.684Z,8.82
2023-04-12T18:21:28.654Z,8.72
2023-04-12T18:23:57.200Z,8.64
2023-04-12T18:26:26.834Z,8.65
2023-04-12T18:28:56.535Z,8.53
2023-04-12T18:31:25.083Z,8.47
2023-04-12T18:33:53.652Z,8.44
2023-04-12T18:36:21.780Z,8.42
2023-04-12T18:38:50.409Z,8.40
2023-04-12T18:41:18.988Z,8.36
2023-04-12T18:43:47.388Z,8.23
2023-04-12T18:46:20.655Z,8.28
2023-04-12T18:48:52.265Z,8.23
2023-04-12T18:51:21.607Z,8.16
2023-04-12T18:53:50.708Z,8.18
2023-04-12T18:56:23.433Z,8.13
2023-04-12T18:58:55.632Z,8.16
2023-04-12T19:01:26.893Z,8.13
2023-04-12T19:03:55.304Z,8.14
2023-04-12T19:06:23.774Z,8.17
2023-04-12T19:08:52.371Z,8.18
2023-04-12T19:11:20.648Z,8.09
2023-04-12T19:13:49.574Z,8.15
2023-04-12T19:16:18.196Z,8.12
2023-04-12T19:18:48.470Z,8.01
2023-04-12T19:21:16.425Z,7.97
2023-04-12T19:23:44.675Z,7.97
2023-04-12T19:26:13.514Z,7.87
2023-04-12T19:28:43.586Z,7.79
2023-04-12T19:31:12.223Z,7.85
2023-04-12T19:33:41.734Z,7.75
2023-04-12T19:36:12.575Z,7.79
2023-04-12T19:38:41.552Z,7.73
2023-04-12T19:41:09.924Z,7.68
2023-04-12T19:43:38.362Z,7.69
2023-04-12T19:46:07.620Z,7.68
2023-04-12T19:48:36.098Z,7.68
2023-04-12T19:51:05.321Z,7.72
2023-04-12T19:53:35.585Z,7.67
2023-04-12T19:56:06.093Z,7.64
2023-04-12T19:58:34.868Z,7.72
2023-04-12T20:01:03.285Z,7.72
2023-04-12T20:03:32.516Z,7.66
2023-04-12T20:06:04.769Z,7.63
2023-04-12T20:08:36.089Z,7.66
2023-04-12T20:11:04.631Z,7.58
2023-04-12T20:13:34.281Z,7.52
2023-04-12T20:16:02.912Z,7.48
2023-04-12T20:18:31.436Z,7.44
2023-04-12T20:20:59.957Z,7.39
2023-04-12T20:23:28.313Z,7.38
2023-04-12T20:25:58.077Z,7.42
2023-04-12T20:28:26.774Z,7.37
2023-04-12T20:30:55.698Z,7.35
2023-04-12T20:33:24.566Z,7.31
2023-04-12T20:35:54.235Z,7.28
2023-04-12T20:38:22.832Z,7.27
2023-04-12T20:40:51.935Z,7.21
2023-04-12T20:43:21.859Z,7.09
2023-04-12T20:45:50.906Z,7.03
2023-04-12T20:48:20.025Z,7.06
2023-04-12T20:50:48.437Z,6.99
2023-04-12T20:53:17.831Z,6.91
2023-04-12T20:55:46.561Z,6.88
2023-04-12T20:58:16.521Z,6.85
2023-04-12T21:00:46.922Z,6.80
2023-04-12T21:03:15.726Z,6.90
2023-04-12T21:05:46.079Z,6.87
2023-04-12T21:08:14.427Z,6.97
2023-04-12T21:10:42.984Z,7.04
2023-04-12T21:13:11.970Z,7.08
2023-04-12T21:15:40.776Z,7.09
2023-04-12T21:18:10.486Z,7.04
2023-04-12T21:20:38.998Z,7.08
2023-04-12T21:23:07.604Z,7.07
2023-04-12T21:25:35.983Z,7.08
2023-04-12T21:28:04.639Z,7.10
2023-04-12T21:30:33.542Z,6.98
2023-04-12T21:33:02.470Z,7.05
2023-04-12T21:35:32.278Z,7.05
2023-04-12T21:38:00.963Z,7.06
2023-04-12T21:40:29.124Z,6.97
2023-04-12T21:42:57.732Z,7.07
2023-04-12T21:45:27.519Z,7.02
2023-04-12T21:47:55.980Z,7.01
2023-04-12T21:50:24.390Z,6.98
2023-04-12T21:52:56.637Z,6.97
2023-04-12T21:55:25.274Z,6.96
2023-04-12T21:57:53.740Z,6.95
2023-04-12T22:00:24.895Z,6.97
2023-04-12T22:02:52.998Z,6.98
2023-04-12T22:05:21.436Z,6.88
2023-04-12T22:07:50.482Z,6.92
2023-04-12T22:10:20.766Z,6.94
2023-04-12T22:12:50.503Z,6.93
2023-04-12T22:15:19.316Z,6.92
2023-04-12T22:17:48.517Z,6.93
2023-04-12T22:20:16.746Z,6.92
2023-04-12T22:22:45.290Z,6.90
2023-04-12T22:25:15.812Z,6.92
2023-04-12T22:27:46.563Z,6.93
2023-04-12T22:30:16.035Z,6.94
2023-04-12T22:32:44.703Z,6.88
2023-04-12T22:35:13.129Z,6.98
2023-04-12T22:37:43.160Z,6.95
2023-04-12T22:40:14.403Z,6.84
2023-04-12T22:42:46.717Z,6.91
2023-04-12T22:45:17.377Z,6.90
2023-04-12T22:47:46.664Z,6.82
2023-04-12T22:50:15.209Z,6.89
2023-04-12T22:52:43.623Z,6.89
2023-04-12T22:55:14.272Z,6.76
2023-04-12T22:57:42.368Z,6.88
2023-04-12T23:00:15.770Z,6.96
2023-04-12T23:02:47.910Z,7.07
2023-04-12T23:05:16.590Z,7.09
2023-04-12T23:07:44.769Z,7.10
2023-04-12T23:10:13.354Z,7.08
2023-04-12T23:12:41.835Z,7.02
2023-04-12T23:15:10.857Z,7.01
2023-04-12T23:17:38.936Z,7.03
2023-04-12T23:20:13.339Z,6.94
2023-04-12T23:22:57.477Z,6.80
2023-04-12T23:25:38.085Z,6.92
2023-04-12T23:28:07.757Z,6.92
2023-04-12T23:30:35.806Z,6.88
2023-04-12T23:33:04.263Z,6.78
2023-04-12T23:35:38.907Z,6.72
2023-04-12T23:38:07.454Z,6.70
2023-04-12T23:40:36.127Z,6.67
2023-04-12T23:43:04.274Z,6.63
2023-04-12T23:45:32.449Z,6.63
2023-04-12T23:48:00.860Z,6.63
2023-04-12T23:50:29.324Z,6.68
2023-04-12T23:52:58.729Z,6.63
2023-04-12T23:55:27.121Z,6.63
2023-04-12T23:57:55.180Z,6.58
